ADDS METAR Data INFO
IDs: Format: Raw Decoded Include TAF

Data at: 0843 UTC 22 Jul 2018

METAR for:KHLX (Hillsville/Twin Cnty, VA, US)
Text:KHLX 220835Z AUTO 18004KT 10SM SCT002 SCT022 BKN060 16/16 A2982 RMK AO2 T01610155
Temperature: 16.1°C ( 61°F)
Dewpoint: 15.5°C ( 60°F) [RH = 96%]
Pressure (altimeter):29.82 inches Hg (1009.9 mb)
Winds:from the S (180 degrees) at 5 MPH (4 knots; 2.1 m/s)
Visibility:10 or more sm (16+ km)
Ceiling:6000 feet AGL
Clouds: scattered clouds at 200 feet AGL, scattered clouds at 2200 feet AGL, broken clouds at 6000 feet AGL
QC Flag:automated observation with no human augmentation